Terminal Aerodrome Forecast
Issued by NWS Charleston, WV

Current Version | Previous Version | Text Only | Print | Product List | Glossary Off
Versions: 1 2 3 4 5 6 7 8 9 10 11 12 13 14 15 16 17 18 19 20 21 22 23 24 25 26

000
FTUS41 KRLX 171125
TAFCRW
TAF
KCRW 171125Z 1712/1812 VRB04KT P6SM BKN025
     FM171300 VRB04KT P6SM SCT025
     FM171600 10004KT P6SM SCT140
     FM180700 17006KT P6SM BKN140=

USA.gov is the U.S. government's official web portal to all federal, state and local government web resources and services.